createdAt,value
2022-11-29T00:00:36.206Z,23
2022-11-29T00:01:36.111Z,23
2022-11-29T00:02:36.212Z,24
2022-11-29T00:03:36.100Z,23
2022-11-29T00:04:36.100Z,23
2022-11-29T00:05:36.098Z,24
2022-11-29T00:06:36.096Z,24
2022-11-29T00:07:36.144Z,23
2022-11-29T00:09:36.095Z,24
2022-11-29T00:10:36.106Z,23
2022-11-29T00:11:36.097Z,24
2022-11-29T00:12:36.557Z,24
2022-11-29T00:13:36.099Z,24
2022-11-29T00:14:36.090Z,23
2022-11-29T00:15:36.092Z,23
2022-11-29T00:17:36.103Z,25
2022-11-29T00:18:36.122Z,24
2022-11-29T00:19:36.129Z,25
2022-11-29T00:20:36.108Z,26
2022-11-29T00:21:36.148Z,24
2022-11-29T00:22:36.110Z,25
2022-11-29T00:23:36.125Z,24
2022-11-29T00:24:36.117Z,25
2022-11-29T00:25:36.116Z,24
2022-11-29T00:26:36.126Z,26
2022-11-29T00:27:36.123Z,27
2022-11-29T00:28:36.118Z,27
2022-11-29T00:29:36.119Z,26
2022-11-29T00:30:36.168Z,26
2022-11-29T00:31:36.121Z,26
2022-11-29T00:32:36.144Z,26
2022-11-29T00:33:36.133Z,26
2022-11-29T00:34:36.122Z,27
2022-11-29T00:35:36.150Z,27
2022-11-29T00:36:36.125Z,27
2022-11-29T00:37:36.116Z,27
2022-11-29T00:38:36.132Z,27
2022-11-29T00:39:36.122Z,26
2022-11-29T00:40:36.184Z,27
2022-11-29T00:41:36.124Z,27
2022-11-29T00:43:36.121Z,27
2022-11-29T00:44:36.122Z,28
2022-11-29T00:45:36.218Z,27
2022-11-29T00:46:36.129Z,27
2022-11-29T00:47:36.126Z,26
2022-11-29T00:48:36.116Z,28
2022-11-29T00:49:36.160Z,28
2022-11-29T00:50:36.117Z,28
2022-11-29T00:51:36.147Z,28
2022-11-29T00:52:36.135Z,28
2022-11-29T00:53:36.149Z,28
2022-11-29T00:55:36.125Z,28
2022-11-29T00:57:36.120Z,27
2022-11-29T00:59:36.124Z,27
2022-11-29T01:00:36.128Z,28
2022-11-29T01:01:36.177Z,27
2022-11-29T01:02:36.166Z,27
2022-11-29T01:03:36.123Z,27
2022-11-29T01:04:36.133Z,28
2022-11-29T01:05:36.128Z,27
2022-11-29T01:06:36.134Z,27
2022-11-29T01:07:36.201Z,28
2022-11-29T01:08:36.207Z,27
2022-11-29T01:09:36.128Z,29
2022-11-29T01:11:36.122Z,29
2022-11-29T01:13:36.130Z,29
2022-11-29T01:14:46.683Z,29
2022-11-29T01:15:36.147Z,29
2022-11-29T01:16:36.262Z,30
2022-11-29T01:17:36.133Z,29
2022-11-29T01:18:36.120Z,29
2022-11-29T01:19:36.135Z,29
2022-11-29T01:20:36.117Z,29
2022-11-29T01:21:36.123Z,29
2022-11-29T01:22:36.128Z,30
2022-11-29T01:23:36.127Z,30
2022-11-29T01:24:46.608Z,31
2022-11-29T01:25:36.128Z,31
2022-11-29T01:27:36.130Z,31
2022-11-29T01:29:36.119Z,32
2022-11-29T01:30:36.204Z,32
2022-11-29T01:31:36.125Z,32
2022-11-29T01:33:36.137Z,33
2022-11-29T01:35:36.178Z,33
2022-11-29T01:37:36.139Z,32
2022-11-29T01:38:36.238Z,32
2022-11-29T01:39:36.146Z,32
2022-11-29T01:41:36.134Z,32
2022-11-29T01:42:46.416Z,31
2022-11-29T01:43:36.139Z,32
2022-11-29T01:44:46.730Z,32
2022-11-29T01:46:46.419Z,31
2022-11-29T01:47:36.137Z,30
2022-11-29T01:48:46.404Z,32
2022-11-29T01:51:36.132Z,30
2022-11-29T01:52:46.417Z,32
2022-11-29T01:53:36.149Z,30
2022-11-29T01:54:36.212Z,31
2022-11-29T01:55:36.169Z,30
2022-11-29T01:58:36.137Z,29
2022-11-29T01:59:36.139Z,29
2022-11-29T02:00:36.138Z,29
2022-11-29T02:01:36.190Z,29
2022-11-29T02:02:36.258Z,29
2022-11-29T02:03:36.138Z,30
2022-11-29T02:04:36.138Z,30
2022-11-29T02:05:36.139Z,28
2022-11-29T02:06:36.138Z,29
2022-11-29T02:07:36.201Z,30
2022-11-29T02:08:36.154Z,31
2022-11-29T02:09:36.166Z,31
2022-11-29T02:10:36.519Z,31
2022-11-29T02:11:36.138Z,31
2022-11-29T02:13:36.135Z,31
2022-11-29T02:14:36.165Z,30
2022-11-29T02:16:36.184Z,30
2022-11-29T02:17:36.141Z,30
2022-11-29T02:19:36.141Z,31
2022-11-29T02:20:36.182Z,30
2022-11-29T02:21:36.147Z,29
2022-11-29T02:23:36.131Z,29
2022-11-29T02:24:36.178Z,31
2022-11-29T02:25:36.135Z,30
2022-11-29T02:26:36.171Z,29
2022-11-29T02:28:36.167Z,29
2022-11-29T02:29:36.137Z,28
2022-11-29T02:30:36.226Z,30
2022-11-29T02:31:36.139Z,28
2022-11-29T02:33:36.142Z,28
2022-11-29T02:34:36.159Z,27
2022-11-29T02:36:36.147Z,27
2022-11-29T02:37:36.211Z,27
2022-11-29T02:38:36.140Z,27
2022-11-29T02:39:36.145Z,26
2022-11-29T02:40:36.176Z,26
2022-11-29T02:42:36.142Z,27
2022-11-29T02:43:36.164Z,28
2022-11-29T02:44:36.144Z,26
2022-11-29T02:46:36.142Z,26
2022-11-29T02:47:36.160Z,25
2022-11-29T02:48:36.132Z,26
2022-11-29T02:49:36.163Z,25
2022-11-29T02:50:36.142Z,26
2022-11-29T02:51:36.161Z,25
2022-11-29T02:52:36.145Z,24
2022-11-29T02:53:36.383Z,25
2022-11-29T02:54:36.141Z,25
2022-11-29T02:55:36.140Z,25
2022-11-29T02:56:36.142Z,24
2022-11-29T02:58:36.181Z,25
2022-11-29T02:59:36.184Z,24
2022-11-29T03:00:36.164Z,37
2022-11-29T03:02:36.234Z,29
2022-11-29T03:03:36.170Z,32
2022-11-29T03:05:36.164Z,35
2022-11-29T03:06:36.146Z,26
2022-11-29T03:07:36.255Z,27
2022-11-29T03:08:36.148Z,26
2022-11-29T03:12:36.158Z,24
2022-11-29T03:13:36.152Z,23
2022-11-29T03:14:36.152Z,25
2022-11-29T03:15:36.206Z,24
2022-11-29T03:16:42.583Z,23
2022-11-29T03:17:36.139Z,24
2022-11-29T03:18:36.146Z,24
2022-11-29T03:19:36.165Z,24
2022-11-29T03:20:36.145Z,25
2022-11-29T03:21:36.136Z,47
2022-11-29T03:22:36.150Z,33
2022-11-29T03:23:36.185Z,25
2022-11-29T03:24:36.138Z,28
2022-11-29T03:26:36.137Z,65
2022-11-29T03:27:36.147Z,44
2022-11-29T03:28:36.143Z,27
2022-11-29T03:29:36.140Z,24
2022-11-29T03:31:36.147Z,24
2022-11-29T03:32:36.157Z,24
2022-11-29T03:33:46.472Z,23
2022-11-29T03:34:36.147Z,24
2022-11-29T03:35:37.668Z,25
2022-11-29T03:36:36.171Z,23
2022-11-29T03:37:36.150Z,24
2022-11-29T03:38:36.171Z,23
2022-11-29T03:39:36.175Z,24
2022-11-29T03:40:36.146Z,25
2022-11-29T03:41:36.168Z,24
2022-11-29T03:42:36.182Z,25
2022-11-29T03:43:36.177Z,24
2022-11-29T03:44:36.212Z,25
2022-11-29T03:46:36.259Z,25
2022-11-29T03:47:36.175Z,24
2022-11-29T03:48:36.174Z,25
2022-11-29T03:49:36.170Z,25
2022-11-29T03:50:36.149Z,24
2022-11-29T03:52:36.146Z,25
2022-11-29T03:53:36.171Z,23
2022-11-29T03:54:36.165Z,24
2022-11-29T03:56:36.159Z,24
2022-11-29T03:57:36.204Z,24
2022-11-29T03:58:36.151Z,23
2022-11-29T03:59:36.179Z,23
2022-11-29T04:00:36.141Z,24
2022-11-29T04:02:36.186Z,23
2022-11-29T04:03:36.161Z,23
2022-11-29T04:04:36.150Z,40
2022-11-29T04:05:36.172Z,54
2022-11-29T04:06:36.166Z,35
2022-11-29T04:07:36.174Z,31
2022-11-29T04:08:36.223Z,44
2022-11-29T04:09:36.153Z,25
2022-11-29T04:10:36.161Z,24
2022-11-29T04:11:36.146Z,21
2022-11-29T04:12:36.159Z,22
2022-11-29T04:13:36.179Z,21
2022-11-29T04:14:36.151Z,21
2022-11-29T04:15:36.218Z,20
2022-11-29T04:16:36.157Z,21
2022-11-29T04:17:46.441Z,20
2022-11-29T04:18:36.153Z,21
2022-11-29T04:19:36.183Z,21
2022-11-29T04:20:39.699Z,21
2022-11-29T04:21:36.179Z,21
2022-11-29T04:22:36.170Z,22
2022-11-29T04:23:36.166Z,23
2022-11-29T04:24:36.277Z,22
2022-11-29T04:25:36.180Z,24
2022-11-29T04:26:36.178Z,24
2022-11-29T04:27:36.159Z,25
2022-11-29T04:28:36.160Z,24
2022-11-29T04:29:36.148Z,23
2022-11-29T04:30:36.165Z,149
2022-11-29T04:31:36.174Z,230
2022-11-29T04:32:36.156Z,63
2022-11-29T04:34:36.208Z,78
2022-11-29T04:35:36.159Z,62
2022-11-29T04:37:36.181Z,84
2022-11-29T04:38:36.164Z,99
2022-11-29T04:39:36.165Z,23
2022-11-29T04:40:36.159Z,24
2022-11-29T04:41:36.176Z,25
2022-11-29T04:42:36.174Z,24
2022-11-29T04:43:36.160Z,26
2022-11-29T04:44:46.814Z,24
2022-11-29T04:47:36.167Z,20
2022-11-29T04:48:36.214Z,19
2022-11-29T04:49:36.163Z,19
2022-11-29T04:51:36.159Z,18
2022-11-29T04:53:36.157Z,18
2022-11-29T04:57:36.170Z,18
2022-11-29T04:58:46.438Z,17
2022-11-29T04:59:36.164Z,17
2022-11-29T05:01:36.225Z,18
2022-11-29T05:02:46.566Z,18
2022-11-29T05:03:36.164Z,19
2022-11-29T05:06:36.178Z,20
2022-11-29T05:07:52.392Z,19
2022-11-29T05:10:36.175Z,19
2022-11-29T05:12:36.229Z,19
2022-11-29T05:16:36.210Z,25
2022-11-29T05:18:36.172Z,41
2022-11-29T05:19:46.462Z,34
2022-11-29T05:22:36.166Z,21
2022-11-29T05:23:36.191Z,19
2022-11-29T05:24:36.214Z,20
2022-11-29T05:25:46.447Z,20
2022-11-29T05:27:46.443Z,20
2022-11-29T05:28:36.166Z,18
2022-11-29T05:29:46.442Z,17
2022-11-29T05:32:36.179Z,19
2022-11-29T05:33:46.457Z,19
2022-11-29T05:34:36.166Z,19
2022-11-29T05:37:46.500Z,18
2022-11-29T05:38:36.182Z,18
2022-11-29T05:39:36.169Z,18
2022-11-29T05:41:36.176Z,20
2022-11-29T05:42:36.225Z,19
2022-11-29T05:43:36.168Z,19
2022-11-29T05:44:36.176Z,19
2022-11-29T05:46:36.241Z,18
2022-11-29T05:47:36.180Z,19
2022-11-29T05:48:36.173Z,17
2022-11-29T05:49:36.186Z,18
2022-11-29T05:50:36.171Z,18
2022-11-29T05:51:36.150Z,18
2022-11-29T05:52:36.172Z,18
2022-11-29T05:54:36.175Z,19
2022-11-29T05:55:36.151Z,19
2022-11-29T05:56:36.174Z,19
2022-11-29T05:58:36.189Z,17
2022-11-29T05:59:36.147Z,18
2022-11-29T06:00:36.152Z,19
2022-11-29T06:01:36.248Z,17
2022-11-29T06:03:36.163Z,18
2022-11-29T06:04:36.176Z,18
2022-11-29T06:05:36.154Z,18
2022-11-29T06:06:36.166Z,19
2022-11-29T06:08:36.177Z,17
2022-11-29T06:10:36.175Z,18
2022-11-29T06:11:36.149Z,18
2022-11-29T06:12:36.183Z,18
2022-11-29T06:13:36.153Z,18
2022-11-29T06:14:36.175Z,18
2022-11-29T06:15:36.153Z,18
2022-11-29T06:16:36.244Z,19
2022-11-29T06:18:36.200Z,18
2022-11-29T06:20:36.178Z,19
2022-11-29T06:21:36.151Z,38
2022-11-29T06:22:36.226Z,26
2022-11-29T06:23:36.152Z,23
2022-11-29T06:24:36.200Z,25
2022-11-29T06:25:36.151Z,21
2022-11-29T06:26:36.174Z,20
2022-11-29T06:28:36.171Z,19
2022-11-29T06:29:36.175Z,20
2022-11-29T06:30:36.173Z,19
2022-11-29T06:32:36.346Z,19
2022-11-29T06:34:36.181Z,19
2022-11-29T06:35:36.187Z,19
2022-11-29T06:36:36.167Z,19
2022-11-29T06:38:36.187Z,19
2022-11-29T06:40:36.177Z,19
2022-11-29T06:41:36.184Z,20
2022-11-29T06:42:36.180Z,20
2022-11-29T06:43:36.183Z,19
2022-11-29T06:45:36.240Z,19
2022-11-29T06:46:36.296Z,21
2022-11-29T06:47:36.198Z,21
2022-11-29T06:48:36.174Z,19
2022-11-29T06:49:36.197Z,20
2022-11-29T06:50:36.161Z,19
2022-11-29T06:52:36.170Z,19
2022-11-29T06:53:36.184Z,19
2022-11-29T06:54:36.175Z,21
2022-11-29T06:55:36.163Z,19
2022-11-29T06:56:36.180Z,19
2022-11-29T06:57:36.194Z,20
2022-11-29T06:58:36.570Z,21
2022-11-29T06:59:36.185Z,20
2022-11-29T07:00:36.253Z,20
2022-11-29T07:01:36.274Z,20
2022-11-29T07:02:36.174Z,20
2022-11-29T07:03:36.178Z,21
2022-11-29T07:04:38.065Z,20
2022-11-29T07:05:36.246Z,21
2022-11-29T07:06:36.181Z,20
2022-11-29T07:07:36.240Z,21
2022-11-29T07:08:36.183Z,22
2022-11-29T07:09:36.169Z,19
2022-11-29T07:10:36.194Z,20
2022-11-29T07:11:36.194Z,19
2022-11-29T07:12:36.175Z,19
2022-11-29T07:13:36.195Z,19
2022-11-29T07:14:36.183Z,18
2022-11-29T07:15:36.171Z,20
2022-11-29T07:16:36.208Z,20
2022-11-29T07:17:36.169Z,19
2022-11-29T07:19:36.180Z,19
2022-11-29T07:20:36.190Z,18
2022-11-29T07:21:36.187Z,20
2022-11-29T07:22:36.172Z,18
2022-11-29T07:24:36.170Z,19
2022-11-29T07:25:36.181Z,20
2022-11-29T07:27:36.176Z,19
2022-11-29T07:28:36.180Z,17
2022-11-29T07:29:36.183Z,19
2022-11-29T07:30:36.183Z,19
2022-11-29T07:31:36.217Z,18
2022-11-29T07:32:36.184Z,18
2022-11-29T07:33:36.178Z,19
2022-11-29T07:34:36.178Z,18
2022-11-29T07:35:36.179Z,17
2022-11-29T07:36:36.173Z,17
2022-11-29T07:37:36.176Z,17
2022-11-29T07:38:36.186Z,17
2022-11-29T07:39:36.182Z,17
2022-11-29T07:40:37.871Z,18
2022-11-29T07:41:36.190Z,18
2022-11-29T07:42:36.180Z,17
2022-11-29T07:43:36.175Z,17
2022-11-29T07:44:36.208Z,18
2022-11-29T07:45:36.250Z,17
2022-11-29T07:46:36.209Z,17
2022-11-29T07:47:36.390Z,17
2022-11-29T07:48:36.183Z,18
2022-11-29T07:49:52.530Z,18
2022-11-29T07:50:36.343Z,18
2022-11-29T07:52:36.178Z,17
2022-11-29T07:54:36.183Z,17
2022-11-29T07:56:36.192Z,17
2022-11-29T07:58:36.269Z,17
2022-11-29T08:00:36.204Z,36
2022-11-29T08:02:36.221Z,27
2022-11-29T08:04:36.191Z,19
2022-11-29T08:06:36.183Z,18
2022-11-29T08:10:36.181Z,18
2022-11-29T08:14:36.180Z,16
2022-11-29T08:16:36.257Z,16
2022-11-29T08:17:36.214Z,16
2022-11-29T08:18:36.177Z,16
2022-11-29T08:19:36.210Z,16
2022-11-29T08:20:36.207Z,16
2022-11-29T08:22:36.199Z,16
2022-11-29T08:24:36.229Z,16
2022-11-29T08:26:36.185Z,16
2022-11-29T08:28:36.187Z,15
2022-11-29T08:29:36.185Z,15
2022-11-29T08:30:36.185Z,15
2022-11-29T08:31:36.285Z,15
2022-11-29T08:32:36.185Z,16
2022-11-29T08:33:36.192Z,15
2022-11-29T08:34:36.192Z,14
2022-11-29T08:35:36.192Z,14
2022-11-29T08:36:36.187Z,16
2022-11-29T08:37:36.179Z,15
2022-11-29T08:38:36.343Z,15
2022-11-29T08:39:36.239Z,16
2022-11-29T08:40:36.181Z,15
2022-11-29T08:41:36.207Z,16
2022-11-29T08:42:36.200Z,15
2022-11-29T08:43:36.183Z,16
2022-11-29T08:44:36.187Z,15
2022-11-29T08:45:36.216Z,14
2022-11-29T08:46:36.187Z,16
2022-11-29T08:47:36.184Z,15
2022-11-29T08:48:36.191Z,16
2022-11-29T08:52:36.188Z,14
2022-11-29T08:54:36.186Z,15
2022-11-29T08:59:37.473Z,14
2022-11-29T09:00:36.187Z,15
2022-11-29T09:01:36.243Z,14
2022-11-29T09:02:36.244Z,14
2022-11-29T09:04:36.189Z,14
2022-11-29T09:05:36.198Z,15
2022-11-29T09:06:36.183Z,15
2022-11-29T09:10:36.193Z,14
2022-11-29T09:11:36.221Z,14
2022-11-29T09:12:36.200Z,13
2022-11-29T09:16:36.312Z,16
2022-11-29T09:18:36.464Z,15
2022-11-29T09:20:36.176Z,15
2022-11-29T09:22:36.225Z,15
2022-11-29T09:26:36.207Z,14
2022-11-29T09:34:36.200Z,15
2022-11-29T09:36:36.197Z,13
2022-11-29T09:39:36.192Z,14
2022-11-29T09:40:36.193Z,16
2022-11-29T09:41:36.198Z,15
2022-11-29T09:42:36.193Z,16
2022-11-29T09:44:36.205Z,17
2022-11-29T09:45:36.265Z,16
2022-11-29T09:46:36.202Z,16
2022-11-29T09:47:36.192Z,18
2022-11-29T09:48:36.193Z,17
2022-11-29T09:49:36.187Z,18
2022-11-29T09:50:36.195Z,17
2022-11-29T09:52:36.205Z,18
2022-11-29T09:54:36.192Z,17
2022-11-29T09:56:36.198Z,18
2022-11-29T09:58:36.257Z,18
2022-11-29T10:00:54.766Z,18
2022-11-29T10:01:36.330Z,19
2022-11-29T10:02:36.376Z,18
2022-11-29T10:03:36.203Z,18
2022-11-29T10:05:36.196Z,20
2022-11-29T10:07:36.238Z,19
2022-11-29T10:09:36.197Z,20
2022-11-29T10:11:36.225Z,19
2022-11-29T10:13:36.194Z,20
2022-11-29T10:15:36.204Z,20
2022-11-29T10:17:36.202Z,20
2022-11-29T10:21:36.208Z,20
2022-11-29T10:23:36.197Z,19
2022-11-29T10:25:36.191Z,18
2022-11-29T10:27:36.196Z,19
2022-11-29T10:29:36.294Z,19
2022-11-29T10:30:36.246Z,20
2022-11-29T10:31:36.211Z,20
2022-11-29T10:33:36.207Z,21
2022-11-29T10:35:36.195Z,19
2022-11-29T10:36:36.209Z,19
2022-11-29T10:37:36.216Z,21
2022-11-29T10:38:36.205Z,20
2022-11-29T10:39:36.248Z,20
2022-11-29T10:40:36.207Z,20
2022-11-29T10:41:36.205Z,20
2022-11-29T10:42:36.195Z,20
2022-11-29T10:43:36.200Z,20
2022-11-29T10:44:36.211Z,20
2022-11-29T10:45:36.322Z,21
2022-11-29T10:46:36.939Z,20
2022-11-29T10:47:36.212Z,20
2022-11-29T10:48:36.203Z,20
2022-11-29T10:49:36.208Z,21
2022-11-29T10:50:36.206Z,21
2022-11-29T10:51:36.209Z,20
2022-11-29T10:52:36.202Z,21
2022-11-29T10:53:36.211Z,21
2022-11-29T10:54:36.206Z,20
2022-11-29T10:55:36.212Z,20
2022-11-29T10:56:36.204Z,20
2022-11-29T10:57:36.210Z,20
2022-11-29T10:58:36.204Z,21
2022-11-29T10:59:36.205Z,22
2022-11-29T11:02:36.246Z,20
2022-11-29T11:03:36.206Z,23
2022-11-29T11:04:36.216Z,20
2022-11-29T11:05:36.244Z,20
2022-11-29T11:06:36.234Z,21
2022-11-29T11:07:36.293Z,22
2022-11-29T11:09:36.208Z,22
2022-11-29T11:10:36.240Z,20
2022-11-29T11:11:36.258Z,22
2022-11-29T11:12:36.194Z,22
2022-11-29T11:13:36.210Z,21
2022-11-29T11:14:36.206Z,22
2022-11-29T11:15:36.210Z,22
2022-11-29T11:16:37.698Z,21
2022-11-29T11:17:36.204Z,21
2022-11-29T11:18:36.219Z,21
2022-11-29T11:19:36.228Z,39
2022-11-29T11:20:36.214Z,41
2022-11-29T11:22:36.209Z,26
2022-11-29T11:24:36.210Z,23
2022-11-29T11:26:36.208Z,21
2022-11-29T11:27:46.490Z,21
2022-11-29T11:28:36.228Z,21
2022-11-29T11:30:36.259Z,22
2022-11-29T11:32:36.237Z,22
2022-11-29T11:34:36.389Z,23
2022-11-29T11:35:46.504Z,22
2022-11-29T11:36:36.226Z,22
2022-11-29T11:38:36.215Z,22
2022-11-29T11:40:36.251Z,23
2022-11-29T11:41:36.246Z,21
2022-11-29T11:42:36.214Z,22
2022-11-29T11:44:51.219Z,20
2022-11-29T11:45:36.205Z,22
2022-11-29T11:46:36.310Z,21
2022-11-29T11:47:36.219Z,22
2022-11-29T11:49:36.204Z,22
2022-11-29T11:50:36.212Z,22
2022-11-29T11:51:36.208Z,22
2022-11-29T11:52:40.183Z,22
2022-11-29T11:53:36.228Z,21
2022-11-29T11:54:36.224Z,21
2022-11-29T11:55:36.211Z,21
2022-11-29T11:56:36.248Z,20
2022-11-29T11:57:36.219Z,21
2022-11-29T11:58:36.211Z,20
2022-11-29T11:59:36.225Z,20
2022-11-29T12:01:02.399Z,22
2022-11-29T12:03:36.317Z,20
2022-11-29T12:04:36.217Z,20
2022-11-29T12:06:36.209Z,20
2022-11-29T12:08:07.384Z,20
2022-11-29T12:08:36.303Z,20
2022-11-29T12:09:46.506Z,20
2022-11-29T12:11:36.219Z,20
2022-11-29T12:12:36.218Z,19
2022-11-29T12:14:36.221Z,20
2022-11-29T12:16:36.215Z,20
2022-11-29T12:18:36.211Z,20
2022-11-29T12:21:36.231Z,21
2022-11-29T12:22:36.257Z,20
2022-11-29T12:23:36.220Z,22
2022-11-29T12:26:55.853Z,22
2022-11-29T12:27:36.254Z,20
2022-11-29T12:28:36.220Z,22
2022-11-29T12:31:36.310Z,23
2022-11-29T12:32:36.221Z,22
2022-11-29T12:34:36.214Z,22
2022-11-29T12:36:36.216Z,21
2022-11-29T12:37:36.218Z,22
2022-11-29T12:38:36.217Z,21
2022-11-29T12:39:36.240Z,21
2022-11-29T12:40:36.212Z,22
2022-11-29T12:41:36.219Z,22
2022-11-29T12:42:36.226Z,21
2022-11-29T12:43:36.214Z,22
2022-11-29T12:44:36.223Z,24
2022-11-29T12:45:36.227Z,23
2022-11-29T12:46:36.288Z,21
2022-11-29T12:47:37.021Z,21
2022-11-29T12:48:36.258Z,19
2022-11-29T12:50:36.217Z,19
2022-11-29T12:51:36.223Z,20
2022-11-29T12:52:36.220Z,18
2022-11-29T12:53:36.227Z,19
2022-11-29T12:54:36.237Z,19
2022-11-29T12:56:36.215Z,19
2022-11-29T12:58:38.190Z,20
2022-11-29T13:00:36.226Z,24
2022-11-29T13:01:36.349Z,30
2022-11-29T13:02:36.264Z,32
2022-11-29T13:03:36.206Z,21
2022-11-29T13:04:36.326Z,20
2022-11-29T13:05:36.218Z,20
2022-11-29T13:06:36.216Z,21
2022-11-29T13:08:36.226Z,19
2022-11-29T13:09:36.224Z,20
2022-11-29T13:10:36.224Z,19
2022-11-29T13:11:36.227Z,19
2022-11-29T13:13:36.218Z,21
2022-11-29T13:14:44.196Z,21
2022-11-29T13:15:36.283Z,21
2022-11-29T13:16:36.323Z,20
2022-11-29T13:17:36.234Z,21
2022-11-29T13:19:36.236Z,20
2022-11-29T13:20:36.229Z,20
2022-11-29T13:21:36.228Z,20
2022-11-29T13:22:36.229Z,20
2022-11-29T13:23:46.038Z,21
2022-11-29T13:24:42.411Z,25
2022-11-29T13:25:36.225Z,27
2022-11-29T13:26:36.219Z,24
2022-11-29T13:27:36.225Z,23
2022-11-29T13:28:36.231Z,26
2022-11-29T13:29:36.257Z,21
2022-11-29T13:30:36.223Z,35
2022-11-29T13:32:36.287Z,24
2022-11-29T13:33:36.226Z,20
2022-11-29T13:34:36.231Z,20
2022-11-29T13:35:36.238Z,20
2022-11-29T13:37:36.230Z,19
2022-11-29T13:38:36.227Z,19
2022-11-29T13:39:36.228Z,18
2022-11-29T13:40:36.234Z,18
2022-11-29T13:41:36.228Z,18
2022-11-29T13:42:36.229Z,19
2022-11-29T13:43:46.527Z,17
2022-11-29T13:44:36.233Z,17
2022-11-29T13:45:46.510Z,19
2022-11-29T13:46:36.277Z,18
2022-11-29T13:47:36.230Z,19
2022-11-29T13:48:36.250Z,17
2022-11-29T13:50:36.242Z,18
2022-11-29T13:51:36.230Z,18
2022-11-29T13:53:36.250Z,19
2022-11-29T13:55:36.232Z,18
2022-11-29T13:56:36.236Z,18
2022-11-29T13:58:00.778Z,18
2022-11-29T13:58:36.230Z,16
2022-11-29T14:00:36.259Z,16
2022-11-29T14:02:36.282Z,17
2022-11-29T14:03:36.244Z,17
2022-11-29T14:04:36.229Z,16
2022-11-29T14:06:36.250Z,16
2022-11-29T14:07:36.335Z,17
2022-11-29T14:09:10.299Z,17
2022-11-29T14:09:46.515Z,17
2022-11-29T14:10:36.264Z,16
2022-11-29T14:11:46.516Z,17
2022-11-29T14:12:36.232Z,16
2022-11-29T14:13:36.259Z,17
2022-11-29T14:14:36.238Z,18
2022-11-29T14:15:36.266Z,17
2022-11-29T14:16:36.245Z,17
2022-11-29T14:17:36.286Z,17
2022-11-29T14:19:36.265Z,20
2022-11-29T14:20:36.236Z,107
2022-11-29T14:22:36.239Z,141
2022-11-29T14:23:36.237Z,43
2022-11-29T14:24:36.235Z,29
2022-11-29T14:25:51.755Z,24
2022-11-29T14:26:36.261Z,20
2022-11-29T14:28:36.253Z,20
2022-11-29T14:29:36.232Z,19
2022-11-29T14:30:36.233Z,17
2022-11-29T14:31:36.420Z,17
2022-11-29T14:32:37.081Z,17
2022-11-29T14:34:36.239Z,18
2022-11-29T14:37:36.236Z,19
2022-11-29T14:38:36.236Z,19
2022-11-29T14:39:36.238Z,18
2022-11-29T14:40:46.521Z,19
2022-11-29T14:41:36.243Z,18
2022-11-29T14:42:36.247Z,18
2022-11-29T14:44:36.234Z,19
2022-11-29T14:48:36.242Z,19
2022-11-29T14:50:36.239Z,19
2022-11-29T14:51:36.253Z,18
2022-11-29T14:52:36.244Z,18
2022-11-29T14:54:36.247Z,18
2022-11-29T14:55:36.255Z,17
2022-11-29T14:56:36.243Z,18
2022-11-29T14:57:36.253Z,17
2022-11-29T14:58:36.243Z,17
2022-11-29T14:59:36.259Z,17
2022-11-29T15:00:36.244Z,16
2022-11-29T15:02:36.325Z,15
2022-11-29T15:03:36.301Z,16
2022-11-29T15:04:36.246Z,17
2022-11-29T15:05:36.265Z,17
2022-11-29T15:07:36.309Z,17
2022-11-29T15:08:36.246Z,16
2022-11-29T15:09:36.261Z,16
2022-11-29T15:10:36.238Z,15
2022-11-29T15:11:36.265Z,15
2022-11-29T15:12:36.236Z,16
2022-11-29T15:13:36.232Z,16
2022-11-29T15:14:36.246Z,15
2022-11-29T15:15:36.272Z,14
2022-11-29T15:16:36.451Z,16
2022-11-29T15:17:36.298Z,15
2022-11-29T15:19:36.264Z,16
2022-11-29T15:20:36.237Z,16
2022-11-29T15:21:36.262Z,15
2022-11-29T15:22:36.242Z,14
2022-11-29T15:25:36.262Z,14
2022-11-29T15:26:36.248Z,14
2022-11-29T15:27:40.151Z,16
2022-11-29T15:28:37.167Z,15
2022-11-29T15:29:36.246Z,14
2022-11-29T15:30:36.236Z,14
2022-11-29T15:32:36.241Z,14
2022-11-29T15:33:36.232Z,15
2022-11-29T15:34:36.256Z,14
2022-11-29T15:35:36.240Z,15
2022-11-29T15:36:36.241Z,14
2022-11-29T15:37:36.241Z,14
2022-11-29T15:38:36.238Z,14
2022-11-29T15:39:36.237Z,14
2022-11-29T15:40:36.248Z,14
2022-11-29T15:41:36.248Z,15
2022-11-29T15:42:36.240Z,15
2022-11-29T15:43:36.361Z,16
2022-11-29T15:44:36.244Z,15
2022-11-29T15:45:36.386Z,16
2022-11-29T15:46:36.286Z,16
2022-11-29T15:47:36.242Z,17
2022-11-29T15:48:36.274Z,22
2022-11-29T15:49:36.246Z,22
2022-11-29T15:50:36.250Z,15
2022-11-29T15:51:36.249Z,17
2022-11-29T15:52:36.249Z,15
2022-11-29T15:53:36.237Z,15
2022-11-29T15:54:36.249Z,17
2022-11-29T15:55:36.241Z,17
2022-11-29T15:56:36.241Z,17
2022-11-29T16:02:36.274Z,17
2022-11-29T16:04:36.247Z,17
2022-11-29T16:06:36.251Z,17
2022-11-29T16:08:36.252Z,17
2022-11-29T16:10:36.254Z,19
2022-11-29T16:11:36.283Z,29
2022-11-29T16:12:36.246Z,37
2022-11-29T16:14:36.256Z,21
2022-11-29T16:16:36.321Z,19
2022-11-29T16:18:36.258Z,18
2022-11-29T16:19:36.252Z,18
2022-11-29T16:20:36.327Z,18
2022-11-29T16:22:36.250Z,18
2022-11-29T16:23:36.258Z,19
2022-11-29T16:24:54.050Z,20
2022-11-29T16:25:37.869Z,19
2022-11-29T16:26:36.254Z,19
2022-11-29T16:27:36.262Z,19
2022-11-29T16:28:36.252Z,20
2022-11-29T16:29:36.254Z,19
2022-11-29T16:32:36.640Z,20
2022-11-29T16:33:36.253Z,21
2022-11-29T16:34:36.282Z,21
2022-11-29T16:35:36.259Z,19
2022-11-29T16:36:36.275Z,21
2022-11-29T16:37:36.254Z,20
2022-11-29T16:38:36.252Z,20
2022-11-29T16:40:36.253Z,22
2022-11-29T16:41:36.265Z,22
2022-11-29T16:43:36.253Z,22
2022-11-29T16:45:36.300Z,21
2022-11-29T16:46:36.256Z,30
2022-11-29T16:48:36.251Z,30
2022-11-29T16:49:36.257Z,23
2022-11-29T16:50:36.272Z,41
2022-11-29T16:51:36.261Z,39
2022-11-29T16:53:36.255Z,33
2022-11-29T16:54:36.257Z,22
2022-11-29T16:55:36.247Z,23
2022-11-29T16:56:36.262Z,22
2022-11-29T16:59:36.250Z,21
2022-11-29T17:01:36.343Z,21
2022-11-29T17:02:36.325Z,21
2022-11-29T17:03:36.249Z,22
2022-11-29T17:04:36.275Z,21
2022-11-29T17:07:36.331Z,21
2022-11-29T17:08:36.275Z,21
2022-11-29T17:09:36.232Z,22
2022-11-29T17:11:36.258Z,21
2022-11-29T17:12:36.270Z,21
2022-11-29T17:13:36.255Z,21
2022-11-29T17:14:36.296Z,21
2022-11-29T17:15:36.250Z,20
2022-11-29T17:17:36.249Z,21
2022-11-29T17:18:36.289Z,21
2022-11-29T17:19:36.252Z,21
2022-11-29T17:20:36.396Z,40
2022-11-29T17:22:36.277Z,32
2022-11-29T17:25:36.252Z,23
2022-11-29T17:26:36.244Z,21
2022-11-29T17:27:36.264Z,20
2022-11-29T17:28:36.289Z,21
2022-11-29T17:30:36.247Z,20
2022-11-29T17:32:36.258Z,20
2022-11-29T17:33:36.252Z,21
2022-11-29T17:34:36.250Z,21
2022-11-29T17:35:36.267Z,21
2022-11-29T17:36:36.258Z,23
2022-11-29T17:37:36.262Z,22
2022-11-29T17:38:36.255Z,22
2022-11-29T17:40:36.272Z,29
2022-11-29T17:41:36.265Z,69
2022-11-29T17:42:36.254Z,41
2022-11-29T17:45:36.370Z,129
2022-11-29T17:46:36.263Z,44
2022-11-29T17:47:36.257Z,33
2022-11-29T17:48:36.286Z,24
2022-11-29T17:49:36.254Z,23
2022-11-29T17:50:36.260Z,23
2022-11-29T17:51:53.120Z,23
2022-11-29T17:53:36.254Z,21
2022-11-29T17:55:36.255Z,22
2022-11-29T17:56:36.288Z,22
2022-11-29T17:57:36.255Z,23
2022-11-29T17:58:36.327Z,24
2022-11-29T17:59:36.259Z,24
2022-11-29T18:01:36.452Z,24
2022-11-29T18:02:36.317Z,24
2022-11-29T18:03:36.305Z,24
2022-11-29T18:04:46.549Z,24
2022-11-29T18:06:36.258Z,24
2022-11-29T18:07:36.309Z,24
2022-11-29T18:08:36.257Z,23
2022-11-29T18:09:36.255Z,23
2022-11-29T18:12:36.258Z,23
2022-11-29T18:14:36.275Z,24
2022-11-29T18:15:46.539Z,24
2022-11-29T18:17:36.263Z,25
2022-11-29T18:20:46.539Z,25
2022-11-29T18:21:36.266Z,23
2022-11-29T18:23:36.285Z,24
2022-11-29T18:25:54.732Z,25
2022-11-29T18:26:36.270Z,24
2022-11-29T18:27:36.264Z,24
2022-11-29T18:29:39.249Z,26
2022-11-29T18:30:36.315Z,25
2022-11-29T18:31:36.266Z,24
2022-11-29T18:33:36.256Z,25
2022-11-29T18:34:36.251Z,24
2022-11-29T18:35:36.262Z,25
2022-11-29T18:36:36.261Z,24
2022-11-29T18:38:12.938Z,24
2022-11-29T18:38:36.260Z,24
2022-11-29T18:41:36.266Z,24
2022-11-29T18:43:36.248Z,25
2022-11-29T18:44:36.275Z,28
2022-11-29T18:47:36.265Z,28